createdAt,value
2023-02-22T00:00:45.241Z,8.31
2023-02-22T00:03:18.504Z,8.30
2023-02-22T00:05:47.110Z,8.32
2023-02-22T00:08:15.581Z,8.34
2023-02-22T00:10:42.924Z,8.36
2023-02-22T00:13:13.184Z,8.38
2023-02-22T00:15:44.216Z,8.28
2023-02-22T00:18:16.116Z,8.28
2023-02-22T00:20:43.868Z,8.31
2023-02-22T00:23:25.304Z,8.31
2023-02-22T00:25:52.414Z,8.34
2023-02-22T00:28:19.768Z,8.33
2023-02-22T00:30:48.168Z,8.29
2023-02-22T00:33:16.393Z,8.23
2023-02-22T00:35:45.881Z,8.24
2023-02-22T00:38:15.220Z,8.27
2023-02-22T00:40:42.607Z,8.29
2023-02-22T00:43:09.783Z,8.33
2023-02-22T00:45:37.688Z,8.30
2023-02-22T00:48:06.090Z,8.27
2023-02-22T00:50:33.572Z,8.27
2023-02-22T00:53:02.133Z,8.29
2023-02-22T00:55:31.565Z,8.23
2023-02-22T00:57:59.530Z,8.18
2023-02-22T01:00:29.423Z,8.19
2023-02-22T01:02:56.872Z,8.21
2023-02-22T01:05:28.694Z,8.22
2023-02-22T01:07:57.368Z,8.21
2023-02-22T01:10:27.682Z,8.21
2023-02-22T01:12:55.624Z,8.20
2023-02-22T01:15:25.397Z,8.17
2023-02-22T01:17:53.592Z,8.18
2023-02-22T01:20:31.317Z,8.18
2023-02-22T01:23:00.339Z,8.19
2023-02-22T01:25:30.487Z,8.17
2023-02-22T01:27:59.420Z,8.15
2023-02-22T01:30:32.854Z,8.13
2023-02-22T01:33:01.139Z,8.15
2023-02-22T01:35:30.648Z,8.15
2023-02-22T01:37:58.232Z,8.12
2023-02-22T01:40:29.578Z,8.11
2023-02-22T01:43:03.296Z,8.11
2023-02-22T01:45:30.537Z,8.07
2023-02-22T01:48:02.118Z,8.06
2023-02-22T01:50:29.838Z,7.96
2023-02-22T01:52:56.994Z,7.95
2023-02-22T01:55:25.021Z,7.95
2023-02-22T01:57:52.187Z,7.94
2023-02-22T02:00:21.286Z,7.95
2023-02-22T02:02:52.433Z,7.96
2023-02-22T02:05:19.761Z,7.91
2023-02-22T02:07:46.919Z,7.89
2023-02-22T02:10:15.430Z,7.89
2023-02-22T02:12:46.622Z,7.89
2023-02-22T02:15:21.700Z,7.87
2023-02-22T02:17:50.033Z,7.85
2023-02-22T02:20:26.097Z,7.82
2023-02-22T02:23:24.380Z,7.80
2023-02-22T02:26:10.314Z,7.79
2023-02-22T02:29:09.949Z,7.77
2023-02-22T02:31:59.166Z,7.76
2023-02-22T02:34:31.926Z,7.72
2023-02-22T02:37:21.153Z,7.68
2023-02-22T02:40:13.585Z,7.68
2023-02-22T02:42:45.144Z,7.63
2023-02-22T02:45:17.832Z,7.59
2023-02-22T02:47:48.501Z,7.59
2023-02-22T02:50:18.223Z,7.60
2023-02-22T02:52:46.561Z,7.60
2023-02-22T02:55:14.310Z,7.59
2023-02-22T02:57:41.505Z,7.58
2023-02-22T03:00:25.200Z,7.56
2023-02-22T03:03:10.610Z,7.55
2023-02-22T03:05:48.695Z,7.53
2023-02-22T03:08:34.429Z,7.55
2023-02-22T03:11:15.222Z,7.56
2023-02-22T03:13:45.476Z,7.58
2023-02-22T03:16:38.553Z,7.60
2023-02-22T03:19:28.152Z,7.58
2023-02-22T03:21:59.925Z,7.55
2023-02-22T03:24:42.339Z,7.56
2023-02-22T03:27:13.260Z,7.56
2023-02-22T03:29:43.225Z,7.54
2023-02-22T03:32:15.745Z,7.51
2023-02-22T03:34:47.884Z,7.50
2023-02-22T03:37:18.068Z,7.53
2023-02-22T03:39:46.733Z,7.53
2023-02-22T03:42:18.499Z,7.55
2023-02-22T03:44:46.019Z,7.57
2023-02-22T03:47:16.851Z,7.56
2023-02-22T03:50:00.570Z,7.54
2023-02-22T03:52:27.873Z,7.56
2023-02-22T03:54:55.033Z,7.59
2023-02-22T03:57:46.293Z,7.53
2023-02-22T04:00:18.151Z,7.55
2023-02-22T04:02:45.712Z,7.56
2023-02-22T04:05:14.205Z,7.55
2023-02-22T04:07:42.108Z,7.48
2023-02-22T04:10:11.412Z,7.48
2023-02-22T04:12:38.594Z,7.49
2023-02-22T04:15:07.381Z,7.49
2023-02-22T04:17:34.534Z,7.52
2023-02-22T04:20:01.667Z,7.54
2023-02-22T04:22:28.834Z,7.54
2023-02-22T04:24:56.092Z,7.53
2023-02-22T04:27:23.235Z,7.52
2023-02-22T04:29:50.351Z,7.52
2023-02-22T04:32:17.437Z,7.51
2023-02-22T04:34:44.578Z,7.42
2023-02-22T04:37:12.266Z,7.36
2023-02-22T04:39:39.559Z,7.32
2023-02-22T04:42:06.723Z,7.33
2023-02-22T04:44:33.944Z,7.35
2023-02-22T04:47:01.039Z,7.32
2023-02-22T04:49:28.287Z,7.32
2023-02-22T04:51:55.480Z,7.33
2023-02-22T04:54:22.623Z,7.35
2023-02-22T04:56:49.843Z,7.34
2023-02-22T04:59:16.952Z,7.34
2023-02-22T05:01:44.144Z,7.34
2023-02-22T05:04:11.416Z,7.33
2023-02-22T05:06:38.533Z,7.34
2023-02-22T05:09:05.662Z,7.31
2023-02-22T05:11:32.785Z,7.29
2023-02-22T05:14:00.150Z,7.28
2023-02-22T05:16:27.270Z,7.29
2023-02-22T05:18:54.544Z,7.31
2023-02-22T05:21:21.785Z,7.32
2023-02-22T05:23:48.942Z,7.32
2023-02-22T05:26:16.040Z,7.31
2023-02-22T05:28:43.183Z,7.26
2023-02-22T05:31:10.408Z,7.24
2023-02-22T05:33:39.710Z,7.25
2023-02-22T05:36:07.788Z,7.26
2023-02-22T05:38:43.038Z,7.28
2023-02-22T05:41:12.207Z,7.20
2023-02-22T05:43:40.325Z,7.14
2023-02-22T05:46:07.934Z,7.18
2023-02-22T05:48:35.044Z,7.22
2023-02-22T05:51:03.724Z,7.25
2023-02-22T05:53:30.810Z,7.29
2023-02-22T05:55:58.121Z,7.31
2023-02-22T05:58:25.309Z,7.33
2023-02-22T06:00:52.525Z,7.33
2023-02-22T06:03:19.579Z,7.30
2023-02-22T06:05:46.941Z,7.30
2023-02-22T06:08:14.110Z,7.33
2023-02-22T06:10:41.574Z,7.36
2023-02-22T06:13:08.799Z,7.38
2023-02-22T06:15:35.916Z,7.41
2023-02-22T06:18:03.079Z,7.43
2023-02-22T06:20:30.931Z,7.45
2023-02-22T06:22:59.142Z,7.46
2023-02-22T06:25:30.750Z,7.47
2023-02-22T06:27:58.939Z,7.47
2023-02-22T06:30:26.943Z,7.48
2023-02-22T06:32:54.409Z,7.48
2023-02-22T06:35:22.150Z,7.50
2023-02-22T06:37:49.393Z,7.51
2023-02-22T06:40:16.753Z,7.50
2023-02-22T06:42:44.233Z,7.51
2023-02-22T06:45:11.519Z,7.52
2023-02-22T06:47:40.394Z,7.54
2023-02-22T06:50:10.263Z,7.49
2023-02-22T06:52:42.506Z,7.49
2023-02-22T06:55:09.637Z,7.52
2023-02-22T06:57:36.742Z,7.53
2023-02-22T07:00:04.277Z,7.56
2023-02-22T07:02:31.386Z,7.58
2023-02-22T07:04:58.517Z,7.61
2023-02-22T07:07:26.335Z,7.64
2023-02-22T07:09:53.468Z,7.68
2023-02-22T07:12:20.663Z,7.70
2023-02-22T07:14:47.762Z,7.75
2023-02-22T07:17:14.836Z,7.74
2023-02-22T07:19:41.964Z,7.74
2023-02-22T07:22:09.305Z,7.76
2023-02-22T07:24:36.450Z,7.77
2023-02-22T07:27:03.615Z,7.80
2023-02-22T07:29:31.420Z,7.81
2023-02-22T07:31:58.548Z,7.79
2023-02-22T07:34:25.697Z,7.83
2023-02-22T07:36:52.751Z,7.85
2023-02-22T07:39:20.646Z,7.88
2023-02-22T07:41:47.933Z,7.90
2023-02-22T07:44:15.539Z,7.91
2023-02-22T07:46:47.197Z,7.91
2023-02-22T07:49:14.923Z,7.94
2023-02-22T07:51:42.223Z,7.96
2023-02-22T07:54:09.414Z,8.00
2023-02-22T07:56:36.702Z,7.96
2023-02-22T07:59:03.952Z,7.97
2023-02-22T08:01:31.838Z,7.98
2023-02-22T08:03:59.013Z,8.01
2023-02-22T08:06:26.193Z,8.02
2023-02-22T08:08:53.396Z,8.02
2023-02-22T08:11:20.516Z,8.03
2023-02-22T08:13:47.648Z,8.02
2023-02-22T08:16:14.776Z,8.04
2023-02-22T08:18:42.081Z,8.03
2023-02-22T08:21:09.247Z,8.04
2023-02-22T08:23:36.329Z,8.05
2023-02-22T08:26:08.045Z,8.07
2023-02-22T08:28:35.570Z,8.08
2023-02-22T08:31:03.270Z,8.10
2023-02-22T08:33:30.510Z,8.10
2023-02-22T08:35:57.798Z,8.11
2023-02-22T08:38:28.378Z,8.12
2023-02-22T08:40:55.787Z,8.08
2023-02-22T08:43:23.670Z,8.09
2023-02-22T08:45:51.773Z,8.11
2023-02-22T08:48:19.634Z,8.13
2023-02-22T08:50:47.168Z,8.17
2023-02-22T08:53:15.131Z,8.18
2023-02-22T08:55:42.592Z,8.19
2023-02-22T08:58:10.150Z,8.21
2023-02-22T09:00:38.996Z,8.22
2023-02-22T09:03:08.912Z,8.23
2023-02-22T09:05:36.428Z,8.25
2023-02-22T09:08:05.085Z,8.28
2023-02-22T09:10:34.974Z,8.27
2023-02-22T09:13:03.926Z,8.30
2023-02-22T09:15:32.102Z,8.33
2023-02-22T09:17:59.597Z,8.35
2023-02-22T09:20:27.290Z,8.40
2023-02-22T09:22:55.260Z,8.40
2023-02-22T09:25:22.922Z,8.42
2023-02-22T09:27:51.841Z,8.43
2023-02-22T09:30:27.178Z,8.48
2023-02-22T09:32:56.308Z,8.49
2023-02-22T09:35:29.609Z,8.53
2023-02-22T09:37:58.442Z,8.59
2023-02-22T09:40:30.928Z,8.60
2023-02-22T09:43:19.294Z,8.66
2023-02-22T09:45:57.946Z,8.72
2023-02-22T09:48:25.421Z,8.75
2023-02-22T09:50:54.004Z,8.80
2023-02-22T09:53:36.025Z,8.85
2023-02-22T09:56:11.645Z,8.84
2023-02-22T09:58:42.779Z,8.88
2023-02-22T10:01:39.074Z,8.91
2023-02-22T10:04:23.012Z,8.96
2023-02-22T10:07:08.753Z,8.98
2023-02-22T10:09:42.516Z,9.02
2023-02-22T10:12:14.979Z,9.09
2023-02-22T10:15:18.949Z,9.13
2023-02-22T10:18:21.870Z,9.13
2023-02-22T10:21:07.540Z,9.18
2023-02-22T10:24:07.330Z,9.27
2023-02-22T10:26:41.698Z,9.34
2023-02-22T10:29:39.850Z,9.42
2023-02-22T10:32:12.214Z,9.45
2023-02-22T10:34:53.453Z,9.49
2023-02-22T10:37:34.432Z,9.56
2023-02-22T10:40:12.220Z,9.64
2023-02-22T10:42:39.302Z,9.73
2023-02-22T10:45:19.707Z,9.79
2023-02-22T10:47:47.013Z,9.88
2023-02-22T10:50:15.087Z,9.95
2023-02-22T10:52:42.315Z,9.92
2023-02-22T10:55:15.682Z,9.89
2023-02-22T10:57:49.667Z,9.84
2023-02-22T11:00:39.669Z,9.87
2023-02-22T11:03:17.856Z,9.87
2023-02-22T11:05:45.153Z,9.82
2023-02-22T11:08:21.143Z,9.77
2023-02-22T11:10:50.362Z,9.80
2023-02-22T11:13:27.997Z,9.81
2023-02-22T11:16:26.063Z,9.73
2023-02-22T11:19:26.144Z,9.73
2023-02-22T11:21:56.719Z,9.72
2023-02-22T11:24:30.295Z,9.73
2023-02-22T11:27:02.285Z,9.73
2023-02-22T11:29:37.207Z,9.71
2023-02-22T11:32:15.272Z,9.69
2023-02-22T11:34:45.413Z,9.72
2023-02-22T11:37:17.559Z,9.75
2023-02-22T11:39:45.032Z,9.76
2023-02-22T11:42:27.431Z,9.76
2023-02-22T11:45:20.623Z,9.76
2023-02-22T11:47:59.841Z,9.76
2023-02-22T11:50:29.082Z,9.76
2023-02-22T11:53:13.517Z,9.70
2023-02-22T11:55:50.558Z,9.72
2023-02-22T11:58:17.577Z,9.73
2023-02-22T12:01:12.037Z,9.76
2023-02-22T12:03:43.310Z,9.73
2023-02-22T12:06:29.289Z,9.69
2023-02-22T12:09:10.171Z,9.71
2023-02-22T12:12:01.041Z,9.76
2023-02-22T12:14:43.139Z,9.78
2023-02-22T12:17:25.216Z,9.80
2023-02-22T12:19:52.358Z,9.80
2023-02-22T12:22:24.836Z,9.81
2023-02-22T12:25:09.775Z,9.79
2023-02-22T12:27:56.175Z,9.79
2023-02-22T12:30:24.358Z,9.79
2023-02-22T12:32:53.792Z,9.84
2023-02-22T12:35:24.735Z,9.86
2023-02-22T12:38:12.190Z,9.85
2023-02-22T12:40:56.988Z,9.88
2023-02-22T12:43:29.839Z,9.93
2023-02-22T12:46:18.021Z,10.00
2023-02-22T12:48:47.865Z,10.04
2023-02-22T12:51:32.352Z,9.93
2023-02-22T12:54:07.741Z,9.94
2023-02-22T12:56:42.302Z,9.94
2023-02-22T12:59:19.169Z,9.97
2023-02-22T13:01:51.981Z,9.93
2023-02-22T13:04:21.242Z,9.95
2023-02-22T13:07:09.430Z,9.97
2023-02-22T13:09:59.109Z,10.03
2023-02-22T13:12:52.510Z,10.07
2023-02-22T13:15:28.033Z,10.14
2023-02-22T13:18:12.387Z,10.16
2023-02-22T13:20:41.333Z,10.20
2023-02-22T13:23:12.274Z,10.24
2023-02-22T13:26:08.736Z,10.22
2023-02-22T13:28:35.635Z,10.23
2023-02-22T13:31:28.219Z,10.26
2023-02-22T13:34:04.450Z,10.28
2023-02-22T13:36:40.801Z,10.30
2023-02-22T13:39:19.908Z,10.24
2023-02-22T13:41:52.202Z,10.22
2023-02-22T13:44:22.162Z,10.22
2023-02-22T13:47:22.953Z,10.21
2023-02-22T13:49:52.798Z,10.20
2023-02-22T13:52:25.252Z,10.25
2023-02-22T13:55:04.905Z,10.25
2023-02-22T13:57:40.813Z,10.27
2023-02-22T14:00:20.953Z,10.28
2023-02-22T14:02:56.885Z,10.26
2023-02-22T14:05:44.958Z,10.27
2023-02-22T14:08:21.847Z,10.26
2023-02-22T14:10:55.303Z,10.26
2023-02-22T14:13:30.063Z,10.23
2023-02-22T14:16:00.192Z,10.21
2023-02-22T14:18:38.415Z,10.22
2023-02-22T14:21:17.178Z,10.20
2023-02-22T14:23:45.061Z,10.18
2023-02-22T14:26:34.037Z,10.17
2023-02-22T14:29:08.204Z,10.12
2023-02-22T14:31:43.327Z,10.13
2023-02-22T14:34:17.921Z,10.13
2023-02-22T14:37:00.973Z,10.17
2023-02-22T14:39:43.456Z,10.11
2023-02-22T14:42:19.836Z,10.12
2023-02-22T14:45:17.795Z,10.12
2023-02-22T14:48:01.011Z,10.12
2023-02-22T14:50:37.687Z,10.11
2023-02-22T14:53:12.097Z,10.12
2023-02-22T14:55:50.823Z,10.11
2023-02-22T14:58:25.652Z,10.11
2023-02-22T15:00:56.585Z,10.09
2023-02-22T15:03:23.857Z,10.00
2023-02-22T15:05:51.002Z,9.96
2023-02-22T15:08:18.817Z,9.90
2023-02-22T15:10:47.825Z,9.87
2023-02-22T15:13:14.870Z,9.90
2023-02-22T15:15:55.872Z,9.89
2023-02-22T15:18:39.737Z,9.93
2023-02-22T15:21:13.113Z,9.87
2023-02-22T15:23:53.635Z,9.85
2023-02-22T15:26:30.043Z,9.86
2023-02-22T15:28:58.805Z,9.88
2023-02-22T15:31:30.824Z,9.85
2023-02-22T15:34:22.265Z,9.82
2023-02-22T15:36:54.541Z,9.85
2023-02-22T15:39:26.882Z,9.82
2023-02-22T15:42:20.848Z,9.74
2023-02-22T15:44:49.895Z,9.75
2023-02-22T15:47:23.082Z,9.73
2023-02-22T15:50:20.885Z,9.75
2023-02-22T15:53:01.565Z,9.72
2023-02-22T15:55:36.364Z,9.69
2023-02-22T15:58:18.612Z,9.70
2023-02-22T16:00:49.923Z,9.68
2023-02-22T16:03:21.786Z,9.68
2023-02-22T16:05:51.173Z,9.71
2023-02-22T16:08:24.124Z,9.68
2023-02-22T16:11:03.301Z,9.64
2023-02-22T16:13:34.042Z,9.55
2023-02-22T16:16:05.649Z,9.57
2023-02-22T16:18:38.520Z,9.58
2023-02-22T16:21:11.700Z,9.53
2023-02-22T16:23:52.338Z,9.53
2023-02-22T16:26:19.400Z,9.51
2023-02-22T16:29:08.431Z,9.53
2023-02-22T16:31:40.210Z,9.55
2023-02-22T16:34:08.723Z,9.54
2023-02-22T16:36:42.748Z,9.55
2023-02-22T16:39:35.920Z,9.54
2023-02-22T16:42:05.001Z,9.51
2023-02-22T16:44:32.185Z,9.51
2023-02-22T16:47:00.492Z,9.49
2023-02-22T16:49:27.831Z,9.48
2023-02-22T16:51:58.405Z,9.42
2023-02-22T16:54:34.232Z,9.38
2023-02-22T16:57:02.523Z,9.35
2023-02-22T16:59:33.367Z,9.31
2023-02-22T17:02:00.486Z,9.27
2023-02-22T17:04:29.123Z,9.25
2023-02-22T17:06:58.971Z,9.21
2023-02-22T17:09:26.703Z,9.16
2023-02-22T17:11:54.313Z,9.11
2023-02-22T17:14:23.677Z,9.10
2023-02-22T17:16:51.246Z,9.07
2023-02-22T17:19:21.211Z,9.04
2023-02-22T17:21:49.381Z,9.05
2023-02-22T17:24:20.061Z,9.04
2023-02-22T17:26:47.196Z,9.00
2023-02-22T17:29:15.283Z,8.98
2023-02-22T17:31:43.637Z,8.98
2023-02-22T17:34:10.784Z,8.95
2023-02-22T17:36:37.981Z,8.91
2023-02-22T17:39:05.938Z,8.88
2023-02-22T17:41:33.081Z,8.85
2023-02-22T17:44:00.187Z,8.86
2023-02-22T17:46:27.440Z,8.82
2023-02-22T17:48:54.583Z,8.79
2023-02-22T17:51:23.470Z,8.76
2023-02-22T17:53:50.776Z,8.76
2023-02-22T17:56:19.599Z,8.68
2023-02-22T17:58:55.208Z,8.68
2023-02-22T18:01:29.403Z,8.66
2023-02-22T18:03:59.192Z,8.65
2023-02-22T18:06:29.814Z,8.65
2023-02-22T18:08:58.814Z,8.66
2023-02-22T18:11:27.696Z,8.61
2023-02-22T18:13:56.725Z,8.59
2023-02-22T18:16:25.844Z,8.59
2023-02-22T18:18:54.166Z,8.58
2023-02-22T18:21:21.664Z,8.57
2023-02-22T18:23:48.897Z,8.55
2023-02-22T18:26:18.768Z,8.55
2023-02-22T18:28:48.456Z,8.53
2023-02-22T18:31:18.996Z,8.52
2023-02-22T18:33:48.920Z,8.51
2023-02-22T18:36:17.407Z,8.49
2023-02-22T18:38:44.711Z,8.48
2023-02-22T18:41:14.350Z,8.46
2023-02-22T18:43:42.121Z,8.44
2023-02-22T18:46:10.309Z,8.44
2023-02-22T18:48:38.566Z,8.42
2023-02-22T18:51:09.805Z,8.38
2023-02-22T18:53:38.424Z,8.38
2023-02-22T18:56:08.299Z,8.33
2023-02-22T18:58:36.182Z,8.28
2023-02-22T19:01:03.878Z,8.27
2023-02-22T19:03:32.589Z,8.28
2023-02-22T19:06:03.454Z,8.26
2023-02-22T19:08:32.492Z,8.26
2023-02-22T19:11:17.734Z,8.26
2023-02-22T19:13:49.028Z,8.24
2023-02-22T19:16:19.729Z,8.23
2023-02-22T19:18:48.519Z,8.20
2023-02-22T19:21:16.442Z,8.18
2023-02-22T19:23:48.057Z,8.15
2023-02-22T19:26:23.832Z,8.13
2023-02-22T19:28:51.617Z,8.10
2023-02-22T19:31:26.311Z,8.02
2023-02-22T19:33:58.099Z,7.92
2023-02-22T19:36:26.525Z,7.92
2023-02-22T19:38:53.688Z,7.86
2023-02-22T19:41:22.779Z,7.85
2023-02-22T19:43:51.767Z,7.86
2023-02-22T19:46:21.108Z,7.86
2023-02-22T19:48:49.050Z,7.84
2023-02-22T19:51:17.713Z,7.84
2023-02-22T19:53:46.118Z,7.82
2023-02-22T19:56:19.043Z,7.82
2023-02-22T19:58:49.504Z,7.81
2023-02-22T20:01:25.158Z,7.80
2023-02-22T20:03:59.743Z,7.80
2023-02-22T20:06:34.622Z,7.78
2023-02-22T20:09:02.554Z,7.75
2023-02-22T20:11:29.872Z,7.72
2023-02-22T20:13:56.980Z,7.70
2023-02-22T20:16:24.293Z,7.66
2023-02-22T20:18:51.532Z,7.54
2023-02-22T20:21:26.477Z,7.51
2023-02-22T20:23:57.096Z,7.49
2023-02-22T20:26:24.683Z,7.45
2023-02-22T20:28:52.472Z,7.42
2023-02-22T20:31:20.952Z,7.43
2023-02-22T20:33:52.072Z,7.44
2023-02-22T20:36:22.039Z,7.43
2023-02-22T20:38:55.577Z,7.26
2023-02-22T20:41:33.378Z,7.22
2023-02-22T20:44:01.397Z,7.20
2023-02-22T20:46:31.476Z,7.19
2023-02-22T20:49:01.013Z,7.21
2023-02-22T20:51:29.013Z,7.17
2023-02-22T20:54:00.037Z,7.14
2023-02-22T20:56:29.607Z,7.11
2023-02-22T20:58:58.774Z,7.09
2023-02-22T21:01:26.418Z,7.02
2023-02-22T21:03:53.658Z,6.93
2023-02-22T21:06:22.004Z,6.84
2023-02-22T21:08:53.613Z,6.87
2023-02-22T21:11:21.495Z,6.92
2023-02-22T21:13:49.023Z,6.92
2023-02-22T21:16:22.193Z,6.94
2023-02-22T21:18:51.541Z,6.95
2023-02-22T21:21:19.149Z,6.96
2023-02-22T21:23:51.636Z,6.88
2023-02-22T21:26:24.492Z,6.84
2023-02-22T21:28:52.352Z,6.83
2023-02-22T21:31:22.010Z,6.83
2023-02-22T21:33:51.244Z,6.85
2023-02-22T21:36:19.697Z,6.79
2023-02-22T21:38:53.286Z,6.73
2023-02-22T21:41:21.779Z,6.69
2023-02-22T21:43:50.640Z,6.67
2023-02-22T21:46:18.701Z,6.66
2023-02-22T21:48:48.686Z,6.68
2023-02-22T21:51:19.584Z,6.65
2023-02-22T21:53:48.500Z,6.65
2023-02-22T21:56:19.151Z,6.59
2023-02-22T21:58:47.227Z,6.54
2023-02-22T22:01:17.470Z,6.52
2023-02-22T22:03:46.208Z,6.51
2023-02-22T22:06:14.492Z,6.52
2023-02-22T22:08:43.072Z,6.50
2023-02-22T22:11:11.485Z,6.48
2023-02-22T22:13:40.363Z,6.50
2023-02-22T22:16:16.496Z,6.42
2023-02-22T22:18:44.938Z,6.39
2023-02-22T22:21:23.464Z,6.41
2023-02-22T22:23:54.615Z,6.43
2023-02-22T22:26:24.696Z,6.41
2023-02-22T22:28:56.081Z,6.39
2023-02-22T22:31:24.761Z,6.38
2023-02-22T22:33:52.550Z,6.37
2023-02-22T22:36:21.451Z,6.36
2023-02-22T22:38:49.417Z,6.34
2023-02-22T22:41:19.238Z,6.32
2023-02-22T22:43:47.026Z,6.28
2023-02-22T22:46:16.894Z,6.27
2023-02-22T22:48:46.792Z,6.26
2023-02-22T22:51:18.149Z,6.23
2023-02-22T22:53:47.272Z,6.20
2023-02-22T22:56:17.591Z,6.19
2023-02-22T22:58:50.091Z,6.11
2023-02-22T23:01:44.534Z,6.08
2023-02-22T23:04:16.111Z,6.08
2023-02-22T23:06:45.800Z,6.07
2023-02-22T23:09:48.772Z,5.99
2023-02-22T23:12:17.630Z,5.96
2023-02-22T23:14:45.625Z,5.94
2023-02-22T23:17:44.905Z,5.96
2023-02-22T23:20:12.620Z,5.93
2023-02-22T23:22:40.686Z,5.92
2023-02-22T23:25:09.316Z,5.93
2023-02-22T23:27:36.877Z,5.93
2023-02-22T23:30:05.539Z,5.93
2023-02-22T23:32:34.999Z,5.91
2023-02-22T23:35:02.178Z,5.84
2023-02-22T23:37:35.305Z,5.82
2023-02-22T23:40:02.453Z,5.81
2023-02-22T23:42:29.591Z,5.80
2023-02-22T23:44:57.113Z,5.79
2023-02-22T23:47:24.697Z,5.79
2023-02-22T23:49:51.850Z,5.79
2023-02-22T23:52:23.978Z,5.80
2023-02-22T23:54:53.718Z,5.72
2023-02-22T23:57:20.889Z,5.70
2023-02-22T23:59:51.254Z,5.67
